Time;durP1;ratioP1;P1;durP2;ratioP2;P2;SDS_P1;SDS_P2;PMS_P1;PMS_P2;Temp;Humidity;BMP_temperature;BMP_pressure;BME280_temperature;BME280_humidity;BME280_pressure;Samples;Min_cycle;Max_cycle;Signal;HPM_P1;HPM_P2
2022/07/11 00:00:06;;;;;;;13.05;5.80;;;13.10;1.00;;;13.53;100.00;98716.69;5019224;28;130359;-71
2022/07/11 00:02:35;;;;;;;9.18;5.95;;;13.00;1.00;;;13.40;100.00;98721.41;5020340;28;129472;-71
2022/07/11 00:05:05;;;;;;;10.38;6.18;;;13.00;23.70;;;13.30;100.00;98723.47;5020620;28;120218;-71
2022/07/11 00:07:34;;;;;;;9.38;5.85;;;12.90;67.10;;;13.19;100.00;98725.13;5020565;28;119238;-71
2022/07/11 00:10:02;;;;;;;9.70;6.47;;;12.90;99.90;;;13.15;100.00;98732.41;5020130;28;130443;-71
2022/07/11 00:12:31;;;;;;;9.63;5.90;;;12.80;99.90;;;13.12;100.00;98722.22;5005557;28;128746;-72
2022/07/11 00:15:00;;;;;;;12.77;6.72;;;12.80;99.90;;;13.15;100.00;98716.06;5005505;28;118857;-71
2022/07/11 00:17:28;;;;;;;10.65;5.97;;;12.80;99.90;;;13.15;100.00;98721.53;5020732;28;119322;-70
2022/07/11 00:19:59;;;;;;;11.40;6.57;;;12.80;99.90;;;13.19;100.00;98716.16;5020043;28;130214;-72
2022/07/11 00:22:28;;;;;;;10.32;5.97;;;12.70;99.90;;;13.19;100.00;98711.50;5002080;28;130636;-72
2022/07/11 00:24:57;;;;;;;11.13;6.45;;;12.70;99.90;;;13.19;100.00;98719.66;5018780;28;120450;-72
2022/07/11 00:27:25;;;;;;;9.38;6.20;;;12.70;99.90;;;13.20;100.00;98718.53;5020233;28;121855;-72
2022/07/11 00:29:54;;;;;;;9.27;5.85;;;12.60;99.90;;;13.15;100.00;98710.63;5005195;28;130275;-72
2022/07/11 00:32:23;;;;;;;12.15;6.40;;;12.60;99.90;;;13.10;100.00;98708.94;5019701;28;129550;-72
2022/07/11 00:34:52;;;;;;;10.60;6.85;;;12.60;99.90;;;13.06;100.00;98707.25;5005185;28;118802;-72
2022/07/11 00:37:21;;;;;;;10.57;6.15;;;12.50;99.90;;;13.07;100.00;98703.38;5019897;28;119539;-72
2022/07/11 00:39:50;;;;;;;11.48;7.00;;;12.50;99.90;;;13.06;100.00;98696.38;5019332;28;130509;-72
2022/07/11 00:42:19;;;;;;;10.88;6.80;;;12.40;99.90;;;12.92;100.00;98703.00;5005048;28;128787;-72
2022/07/11 00:44:48;;;;;;;9.80;6.38;;;12.30;99.90;;;12.88;100.00;98702.09;5004999;28;118415;-72
2022/07/11 00:47:16;;;;;;;10.30;6.18;;;12.30;99.90;;;12.88;100.00;98699.38;5004997;28;119061;-72
2022/07/11 00:49:46;;;;;;;9.00;5.93;;;12.30;99.90;;;12.89;100.00;98698.25;5018177;28;130542;-72
2022/07/11 00:52:15;;;;;;;10.38;5.82;;;12.30;99.90;;;12.92;100.00;98688.59;5004663;28;129093;-72
2022/07/11 00:54:46;;;;;;;9.43;5.40;;;12.30;99.90;;;12.91;100.00;98695.94;5021724;28;119653;-72
2022/07/11 00:57:15;;;;;;;8.65;5.53;;;12.40;99.90;;;12.91;100.00;98695.94;5005043;28;118460;-72
2022/07/11 00:59:44;;;;;;;8.20;5.70;;;12.40;99.90;;;12.90;100.00;98701.75;5019535;28;130046;-72
2022/07/11 01:02:12;;;;;;;8.98;4.95;;;12.40;99.90;;;12.87;100.00;98703.25;5004667;28;129552;-72
2022/07/11 01:04:41;;;;;;;10.13;5.55;;;12.40;99.90;;;12.78;100.00;98705.31;5019856;28;119791;-72
2022/07/11 01:07:09;;;;;;;13.93;6.45;;;12.40;99.90;;;12.73;100.00;98708.25;5020098;28;120049;-72
2022/07/11 01:09:38;;;;;;;10.43;6.03;;;12.30;99.90;;;12.68;100.00;98705.78;5004452;28;129356;-71
2022/07/11 01:12:09;;;;;;;9.15;5.35;;;12.20;99.90;;;12.67;100.00;98704.19;5019321;28;129428;-71
2022/07/11 01:14:38;;;;;;;9.25;5.95;;;12.20;99.90;;;12.62;100.00;98705.25;5018250;28;122235;-72
2022/07/11 01:17:06;;;;;;;9.82;6.13;;;12.10;99.90;;;12.55;100.00;98699.59;5019531;28;121827;-72
2022/07/11 01:19:35;;;;;;;7.70;5.18;;;12.10;99.90;;;12.39;100.00;98707.69;5004330;28;130031;-72
2022/07/11 01:22:05;;;;;;;8.35;5.20;;;12.00;99.90;;;12.23;100.00;98700.22;5019341;28;129973;-72
2022/07/11 01:24:36;;;;;;;8.48;5.15;;;12.00;99.90;;;12.19;100.00;98693.09;5019428;28;119711;-72
2022/07/11 01:27:06;;;;;;;8.70;4.45;;;12.00;99.90;;;12.15;100.00;98695.66;5019557;28;119713;-72
2022/07/11 01:29:35;;;;;;;8.10;5.00;;;12.00;99.90;;;12.10;100.00;98685.03;5019154;28;130681;-72
2022/07/11 01:32:04;;;;;;;8.45;4.80;;;11.90;99.90;;;12.13;100.00;98689.78;5019425;28;129499;-72
2022/07/11 01:34:33;;;;;;;9.25;4.78;;;11.90;99.90;;;12.14;100.00;98691.38;5021243;28;119529;-72
2022/07/11 01:37:02;;;;;;;8.77;4.72;;;11.80;99.90;;;12.15;100.00;98684.78;5019318;28;119830;-72
2022/07/11 01:39:30;;;;;;;7.32;4.95;;;11.80;99.90;;;12.15;100.00;98682.06;5019893;28;129934;-70
2022/07/11 01:42:00;;;;;;;8.40;4.85;;;11.80;99.90;;;12.19;100.00;98688.41;5018804;28;129365;-71
2022/07/11 01:44:29;;;;;;;8.30;4.68;;;11.90;99.90;;;12.23;100.00;98699.41;4987572;28;119362;-71
2022/07/11 01:46:58;;;;;;;8.85;4.80;;;11.90;99.90;;;12.23;100.00;98692.06;5004153;28;119095;-72
2022/07/11 01:49:29;;;;;;;7.28;4.50;;;12.00;99.90;;;12.30;100.00;98685.25;5018611;28;130240;-71
2022/07/11 01:51:58;;;;;;;6.75;5.10;;;12.00;99.90;;;12.34;100.00;98683.41;5020227;27;130712;-72
2022/07/11 01:54:27;;;;;;;7.50;4.65;;;12.00;99.90;;;12.35;100.00;98691.22;5023968;28;120243;-72
2022/07/11 01:56:55;;;;;;;6.50;4.53;;;12.00;99.90;;;12.38;100.00;98690.53;5023204;28;119297;-72
2022/07/11 01:59:26;;;;;;;7.30;4.40;;;12.10;99.90;;;12.44;100.00;98699.28;5022216;28;129958;-72
2022/07/11 02:01:55;;;;;;;9.40;4.53;;;12.10;99.90;;;12.47;100.00;98695.88;5007265;28;128208;-73
2022/07/11 02:04:23;;;;;;;6.82;4.60;;;12.20;99.90;;;12.52;100.00;98690.19;5021170;28;122109;-71
2022/07/11 02:06:52;;;;;;;7.97;4.13;;;12.20;99.90;;;12.55;100.00;98694.94;5022228;28;121965;-73
2022/07/11 02:09:21;;;;;;;7.68;4.47;;;12.20;99.90;;;12.57;100.00;98700.03;5021930;28;130031;-71
2022/07/11 02:11:49;;;;;;;8.77;5.25;;;12.20;99.90;;;12.59;100.00;98706.72;5023966;28;130325;-72
2022/07/11 02:14:18;;;;;;;7.50;5.20;;;12.30;99.90;;;12.63;100.00;98695.16;5022364;28;119663;-71
2022/07/11 02:16:48;;;;;;;7.72;4.50;;;12.20;99.90;;;12.69;100.00;98693.78;5004454;28;119387;-70
2022/07/11 02:19:17;;;;;;;10.35;4.07;;;12.20;99.90;;;12.74;100.00;98693.53;5006916;28;129589;-71
2022/07/11 02:21:45;;;;;;;6.35;4.00;;;12.20;99.90;;;12.73;100.00;98697.38;5020731;28;129820;-71
2022/07/11 02:24:14;;;;;;;7.13;4.18;;;12.20;99.90;;;12.70;100.00;98696.16;5021966;28;119583;-71
2022/07/11 02:26:42;;;;;;;7.55;4.20;;;12.30;99.90;;;12.73;100.00;98700.09;5023722;28;119997;-71
2022/07/11 02:29:11;;;;;;;8.98;4.25;;;12.30;99.90;;;12.77;100.00;98701.00;5020524;28;130105;-71
2022/07/11 02:31:39;;;;;;;6.75;3.75;;;12.40;99.90;;;12.85;100.00;98694.59;5021739;28;129997;-71
2022/07/11 02:34:10;;;;;;;8.55;4.28;;;12.50;99.90;;;12.89;100.00;98692.78;5023950;28;119352;-71
2022/07/11 02:36:39;;;;;;;8.52;4.18;;;12.50;99.90;;;12.90;100.00;98693.56;5021851;28;119240;-72
2022/07/11 02:39:07;;;;;;;7.85;4.07;;;12.50;99.90;;;12.92;100.00;98692.09;5006653;28;130370;-72
2022/07/11 02:41:36;;;;;;;5.78;3.58;;;12.50;99.90;;;13.00;100.00;98686.84;5006499;28;129911;-71
2022/07/11 02:44:07;;;;;;;7.88;4.13;;;12.60;99.90;;;13.11;100.00;98693.38;5023828;28;118593;-71
2022/07/11 02:46:35;;;;;;;7.63;3.55;;;12.60;99.90;;;13.22;100.00;98690.94;5021981;28;119579;-72
2022/07/11 02:49:03;;;;;;;5.95;3.55;;;12.60;99.90;;;13.29;100.00;98694.66;5006803;28;130347;-72
2022/07/11 02:51:34;;;;;;;10.90;3.75;;;12.70;99.90;;;13.29;100.00;98689.22;5006483;28;129231;-72
2022/07/11 02:54:02;;;;;;;6.68;3.63;;;12.60;99.90;;;13.34;100.00;98690.09;5021279;28;122052;-72
2022/07/11 02:56:32;;;;;;;6.30;3.53;;;12.60;99.90;;;13.27;100.00;98691.47;5021130;28;121895;-71
2022/07/11 02:59:01;;;;;;;6.35;3.30;;;12.60;99.90;;;13.22;100.00;98686.28;5021188;28;130059;-72
2022/07/11 03:01:30;;;;;;;7.57;3.70;;;12.50;99.90;;;13.21;100.00;98681.97;5021215;28;130065;-72
2022/07/11 03:03:58;;;;;;;6.18;3.50;;;12.60;99.90;;;13.25;100.00;98674.69;5006390;28;120013;-71
2022/07/11 03:06:27;;;;;;;8.80;3.63;;;12.60;99.90;;;13.23;100.00;98679.69;5021298;28;119364;-71
2022/07/11 03:08:57;;;;;;;8.40;4.20;;;12.60;99.90;;;13.29;100.00;98678.31;5021252;28;129985;-73
2022/07/11 03:11:27;;;;;;;5.97;3.33;;;12.70;99.90;;;13.36;100.00;98677.72;5021539;28;129541;-71
2022/07/11 03:13:56;;;;;;;5.47;3.42;;;12.70;99.90;;;13.45;100.00;98678.34;5021407;28;120290;-70
2022/07/11 03:16:24;;;;;;;5.90;3.65;;;12.70;99.90;;;13.56;100.00;98680.56;5021583;28;120572;-71
2022/07/11 03:18:53;;;;;;;7.03;3.53;;;12.70;99.90;;;13.70;100.00;98677.38;5019817;28;130151;-71
2022/07/11 03:21:21;;;;;;;5.05;3.17;;;12.70;99.90;;;14.03;100.00;98685.97;5020419;28;129917;-72
2022/07/11 03:23:50;;;;;;;5.97;2.70;;;13.00;99.90;;;14.09;100.00;98680.25;5021090;28;120230;-72
2022/07/11 03:26:20;;;;;;;5.65;2.97;;;13.00;19.90;;;14.21;100.00;98682.88;5006195;28;118179;-71
2022/07/11 03:28:49;;;;;;;7.50;3.35;;;13.10;1.00;;;14.25;100.00;98683.72;5005922;28;128620;-71
2022/07/11 03:31:18;;;;;;;6.22;3.25;;;13.10;1.00;;;14.31;100.00;98682.31;5020529;28;129313;-72
2022/07/11 03:33:47;;;;;;;5.80;3.13;;;13.10;1.00;;;14.27;99.76;98686.88;5021091;28;120407;-72
2022/07/11 03:36:15;;;;;;;6.13;3.13;;;13.00;1.00;;;14.32;99.49;98686.63;5021423;28;119601;-72
2022/07/11 03:38:44;;;;;;;9.63;3.17;;;13.00;1.00;;;14.34;98.90;98686.28;5022639;28;129660;-72
2022/07/11 03:41:12;;;;;;;5.50;3.40;;;13.00;1.00;;;14.22;98.35;98683.66;5020507;28;129903;-72
2022/07/11 03:43:42;;;;;;;6.63;2.92;;;13.00;1.00;;;14.21;98.69;98688.34;5019567;28;122330;-73
2022/07/11 03:46:11;;;;;;;5.65;3.00;;;13.00;1.00;;;14.24;98.35;98687.59;4989257;28;120709;-71
2022/07/11 03:48:39;;;;;;;9.43;3.17;;;13.00;1.00;;;14.25;97.59;98677.50;5020426;28;131311;-72
2022/07/11 03:51:08;;;;;;;7.93;2.78;;;13.00;1.00;;;14.21;96.64;98682.88;5005628;28;128619;-72
2022/07/11 03:53:36;;;;;;;9.38;3.45;;;13.00;1.00;;;14.22;97.06;98684.44;5021928;28;119961;-71
2022/07/11 03:56:06;;;;;;;6.60;3.05;;;13.10;1.00;;;14.30;96.72;98685.41;5015289;28;119697;-71
2022/07/11 03:58:35;;;;;;;5.82;3.10;;;13.10;1.00;;;14.38;96.56;98676.22;4986117;28;130215;-72
2022/07/11 04:01:05;;;;;;;4.45;2.85;;;13.20;1.00;;;14.51;96.50;98672.22;4999600;28;129003;-73
2022/07/11 04:03:35;;;;;;;5.53;3.00;;;13.30;1.00;;;14.73;95.61;98676.22;5003726;28;102999;-71
2022/07/11 04:06:04;;;;;;;6.00;3.40;;;13.50;1.00;;;14.90;94.47;98679.66;4984682;28;119378;-73
2022/07/11 04:08:33;;;;;;;5.55;2.88;;;13.60;1.00;;;15.13;93.28;98687.09;4997795;28;130255;-72
2022/07/11 04:11:02;;;;;;;5.28;2.75;;;13.80;1.00;;;15.25;91.40;98685.03;4999638;28;129471;-73
2022/07/11 04:13:32;;;;;;;7.47;3.28;;;13.90;1.00;;;15.21;90.75;98694.31;4984858;28;119430;-73
2022/07/11 04:16:01;;;;;;;4.45;2.50;;;13.80;1.00;;;15.19;89.82;98686.47;4999863;28;119480;-73
2022/07/11 04:18:31;;;;;;;5.28;2.47;;;13.90;1.00;;;14.98;89.08;98692.31;4983329;28;129189;-72
2022/07/11 04:20:59;;;;;;;5.78;2.70;;;13.80;1.00;;;14.64;90.27;98694.75;4996648;28;129320;-71
2022/07/11 04:23:28;;;;;;;5.03;3.08;;;13.70;1.00;;;14.64;91.74;98689.28;4998905;28;119665;-72
2022/07/11 04:25:56;;;;;;;6.70;2.60;;;13.70;1.00;;;14.77;90.22;98691.88;4985503;28;118321;-72
2022/07/11 04:28:25;;;;;;;7.93;2.53;;;13.80;1.00;;;14.71;90.68;98694.91;5002475;28;131583;-73
2022/07/11 04:30:54;;;;;;;5.70;2.50;;;13.80;1.00;;;14.72;90.37;98680.09;5000095;28;130393;-72
2022/07/11 04:33:22;;;;;;;5.57;2.55;;;13.90;1.00;;;14.83;89.88;98679.50;4998804;28;121998;-72
2022/07/11 04:35:52;;;;;;;5.18;2.55;;;13.90;1.00;;;14.85;89.05;98686.22;5000087;28;122140;-73
2022/07/11 04:38:22;;;;;;;5.70;2.45;;;13.90;1.00;;;14.93;88.06;98684.41;4999832;28;129888;-73
2022/07/11 04:40:50;;;;;;;4.93;2.45;;;14.00;1.00;;;14.90;87.58;98687.88;5002668;28;131524;-71
2022/07/11 04:43:19;;;;;;;4.25;2.40;;;14.00;1.00;;;15.07;87.55;98684.69;5000041;28;119717;-72
2022/07/11 04:45:48;;;;;;;6.32;2.22;;;14.10;1.00;;;15.33;86.20;98680.44;4999710;28;119232;-71
2022/07/11 04:48:16;;;;;;;4.35;2.38;;;14.40;1.00;;;15.60;85.15;98688.75;4984213;28;129770;-72
2022/07/11 04:50:45;;;;;;;3.72;2.15;;;14.60;1.00;;;15.64;84.46;98692.31;5000477;28;129965;-73
2022/07/11 04:53:15;;;;;;;4.68;2.25;;;14.60;1.00;;;15.56;86.45;98693.34;5000936;28;120846;-72
2022/07/11 04:55:44;;;;;;;7.53;2.72;;;14.60;1.00;;;15.63;86.58;98690.75;5019950;28;119407;-72
2022/07/11 04:58:13;;;;;;;6.53;2.42;;;14.60;1.00;;;15.94;86.17;98691.66;5018423;28;130143;-71
2022/07/11 05:00:41;;;;;;;4.68;2.65;;;14.90;1.00;;;16.18;84.20;98685.78;5004700;28;129078;-72
2022/07/11 05:03:10;;;;;;;4.90;2.20;;;15.10;1.00;;;16.46;82.16;98690.09;5001627;28;119675;-73
2022/07/11 05:05:39;;;;;;;8.48;2.53;;;15.30;1.00;;;16.74;79.57;98688.88;5004769;28;118174;-73
2022/07/11 05:08:07;;;;;;;7.40;2.20;;;15.40;99.90;;;16.73;78.79;98695.50;5018903;28;130378;-70
2022/07/11 05:10:38;;;;;;;4.38;2.22;;;15.50;99.90;;;17.00;79.30;98687.25;5004145;28;128982;-73
2022/07/11 05:13:07;;;;;;;4.32;1.98;;;15.80;99.90;;;17.32;76.22;98695.03;5019585;28;119676;-71
2022/07/11 05:15:36;;;;;;;4.75;1.95;;;16.10;99.90;;;17.02;76.62;98701.38;5019891;28;119508;-73
2022/07/11 05:18:05;;;;;;;3.53;2.10;;;15.90;99.90;;;17.11;78.34;98693.66;5019305;28;129652;-71
2022/07/11 05:20:33;;;;;;;6.65;2.20;;;16.10;99.90;;;17.03;77.67;98700.19;5018210;28;129371;-73
2022/07/11 05:23:02;;;;;;;5.75;2.47;;;16.10;99.90;;;17.18;77.97;98687.44;5018285;28;121731;-73
2022/07/11 05:25:31;;;;;;;4.85;2.15;;;16.20;99.90;;;17.68;76.63;98685.19;5001122;28;122111;-72
2022/07/11 05:28:01;;;;;;;5.40;2.08;;;16.50;99.90;;;17.80;75.25;98692.34;5007291;28;129689;-73
2022/07/11 05:30:29;;;;;;;6.05;1.80;;;16.80;99.90;;;17.81;75.22;98685.69;5022702;28;129505;-71
2022/07/11 05:32:58;;;;;;;3.17;1.60;;;16.90;99.90;;;17.82;75.05;98679.03;5005285;28;119887;-73
2022/07/11 05:35:27;;;;;;;5.70;2.30;;;16.90;99.90;;;17.90;75.32;98674.41;5022946;28;120627;-73
2022/07/11 05:37:55;;;;;;;5.80;1.80;;;17.00;99.90;;;17.78;73.13;98672.72;5022262;28;129670;-73
2022/07/11 05:40:24;;;;;;;3.53;1.75;;;17.10;99.90;;;17.94;72.69;98681.50;5007909;28;129240;-72
2022/07/11 05:42:53;;;;;;;5.20;1.80;;;17.30;99.90;;;17.91;72.72;98678.72;5022848;28;119588;-71
2022/07/11 05:45:22;;;;;;;5.35;2.10;;;17.20;99.90;;;18.07;73.29;98673.75;5000039;28;118639;-72
2022/07/11 05:47:51;;;;;;;4.18;1.95;;;17.40;99.90;;;18.21;71.72;98673.03;5006408;28;128777;-74
2022/07/11 05:50:19;;;;;;;4.13;1.75;;;17.40;99.90;;;18.37;71.24;98674.72;5022275;28;130102;-72
2022/07/11 05:52:48;;;;;;;3.25;1.55;;;17.60;99.90;;;18.37;72.12;98674.72;5023199;28;120088;-72
2022/07/11 05:55:16;;;;;;;6.30;2.08;;;17.60;99.90;;;18.60;71.12;98672.47;5024564;28;118759;-74
2022/07/11 05:57:45;;;;;;;6.30;1.88;;;17.70;99.90;;;19.06;68.94;98673.06;5022525;28;129951;-73
2022/07/11 06:00:15;;;;;;;2.88;1.70;;;17.90;99.90;;;19.52;66.22;98680.63;5022288;28;129765;-73
2022/07/11 06:02:46;;;;;;;2.63;1.58;;;18.00;99.90;;;19.77;63.97;98677.13;5025480;28;121670;-74
2022/07/11 06:05:15;;;;;;;4.20;1.60;;;18.10;99.90;;;19.46;62.57;98684.94;5013456;28;119579;-74
2022/07/11 06:10:29;;;;;;;4.90;2.00;;;18.00;99.90;;;19.12;65.23;98682.50;5006744;28;129208;-72
2022/07/11 06:12:58;;;;;;;5.93;2.45;;;18.20;99.90;;;19.59;64.85;98675.13;5020783;28;122682;-74
2022/07/11 06:15:27;;;;;;;5.43;1.92;;;18.50;99.90;;;19.95;64.72;98675.16;5021952;28;121803;-77
2022/07/11 06:17:57;;;;;;;6.88;2.03;;;18.70;99.90;;;20.24;64.16;98677.84;5021500;28;129642;-75
2022/07/11 06:20:25;;;;;;;5.47;1.80;;;18.70;99.90;;;20.26;62.76;98678.25;5021813;28;129444;-77
2022/07/11 06:22:54;;;;;;;3.08;1.48;;;18.50;99.90;;;20.43;60.90;98679.41;5004130;28;119580;-77
2022/07/11 06:25:23;;;;;;;3.60;1.48;;;18.50;99.90;;;20.70;60.46;98685.25;5022031;28;119281;-77
2022/07/11 06:27:51;;;;;;;5.68;1.60;;;18.80;99.90;;;20.85;61.06;98685.97;5006590;28;129486;-76
2022/07/11 06:30:20;;;;;;;4.25;1.67;;;18.80;99.90;;;20.95;61.95;98685.13;5022186;28;129693;-76
2022/07/11 06:32:48;;;;;;;4.95;1.70;;;18.90;99.90;;;21.10;61.34;98685.84;5022090;28;120211;-73
2022/07/11 06:35:19;;;;;;;4.72;2.05;;;19.00;99.90;;;21.23;62.25;98679.88;5022720;28;120025;-75
2022/07/11 06:37:47;;;;;;;4.03;1.70;;;19.20;99.90;;;21.10;59.82;98685.06;5020119;27;130174;-74
2022/07/11 06:40:17;;;;;;;4.70;1.92;;;19.40;99.90;;;21.17;60.66;98694.06;5021502;28;130076;-75
2022/07/11 06:42:46;;;;;;;5.90;1.80;;;19.50;99.90;;;21.62;59.98;98690.66;5021867;28;119487;-75
2022/07/11 06:45:14;;;;;;;5.43;1.80;;;19.80;99.90;;;21.72;59.35;98691.78;5021399;28;119088;-76
2022/07/11 06:47:43;;;;;;;3.80;1.70;;;19.10;99.90;;;21.49;58.13;98684.09;5021265;28;129812;-74
2022/07/11 06:50:12;;;;;;;4.53;1.58;;;19.30;99.90;;;21.65;57.85;98678.03;5021524;28;129916;-75
2022/07/11 06:52:42;;;;;;;4.97;1.30;;;19.10;99.90;;;21.63;58.38;98692.25;5021729;28;120080;-77
2022/07/11 06:55:11;;;;;;;4.32;1.67;;;19.20;99.90;;;21.73;57.12;98676.78;5006411;28;118818;-76
2022/07/11 06:57:40;;;;;;;4.63;1.55;;;19.20;99.90;;;21.59;58.07;98682.44;5018928;28;129842;-78
2022/07/11 07:00:10;;;;;;;5.90;1.70;;;19.00;99.90;;;21.63;58.38;98688.69;5010108;28;129629;-78
2022/07/11 07:02:38;;;;;;;3.30;1.42;;;19.50;99.90;;;21.87;57.44;98682.19;5020217;28;122611;-77
2022/07/11 07:05:08;;;;;;;5.32;1.95;;;19.80;99.90;;;22.10;57.39;98678.06;5021232;28;121917;-75
2022/07/11 07:07:37;;;;;;;4.28;1.60;;;19.70;99.90;;;22.19;56.63;98670.06;5021013;28;130555;-75
2022/07/11 07:10:08;;;;;;;8.32;1.33;;;19.90;99.90;;;21.83;53.68;98680.66;5020895;28;130288;-70
2022/07/11 07:12:40;;;;;;;4.00;1.40;;;20.00;99.90;;;21.35;54.14;98680.19;5006413;28;118830;-71
2022/07/11 07:15:09;;;;;;;3.72;1.67;;;19.90;99.90;;;21.87;53.76;98673.91;5021084;28;119784;-75
2022/07/11 07:17:38;;;;;;;5.03;1.27;;;20.10;99.90;;;22.21;52.67;98673.19;5020847;28;129944;-76
2022/07/11 07:20:10;;;;;;;3.85;1.30;;;20.40;99.90;;;22.35;51.50;98666.78;5021464;28;129328;-72
2022/07/11 07:22:39;;;;;;;13.23;2.45;;;20.30;99.90;;;22.45;50.15;98667.84;5006328;28;118075;-77
2022/07/11 07:25:10;;;;;;;9.05;1.60;;;20.10;99.90;;;22.65;50.06;98678.28;5021170;28;119484;-72
2022/07/11 07:27:39;;;;;;;3.53;1.30;;;20.20;99.90;;;22.61;50.25;98684.66;5019418;28;129569;-74
2022/07/11 07:30:09;;;;;;;11.20;1.70;;;20.00;99.90;;;22.83;49.73;98670.56;5022773;28;129259;-74
2022/07/11 07:32:37;;;;;;;2.50;1.20;;;20.50;99.90;;;22.38;48.39;98665.16;5021193;28;119481;-74
2022/07/11 07:35:07;;;;;;;6.25;1.55;;;20.50;99.90;;;22.27;49.88;98677.09;5021178;28;119435;-76
2022/07/11 07:37:35;;;;;;;7.38;1.75;;;20.00;99.90;;;22.38;50.34;98665.16;5020703;28;130493;-72
2022/07/11 07:40:05;;;;;;;4.47;1.55;;;20.10;99.90;;;22.49;50.09;98671.34;5020697;28;129879;-73
2022/07/11 07:42:36;;;;;;;3.92;1.20;;;20.20;99.90;;;22.88;47.21;98664.56;5021183;28;120242;-71
2022/07/11 07:45:05;;;;;;;4.78;1.83;;;20.60;99.90;;;23.09;47.36;98665.50;5020002;28;119420;-73
2022/07/11 07:47:35;;;;;;;5.57;1.42;;;20.60;99.90;;;21.82;48.70;98668.81;5020067;28;129995;-74
2022/07/11 07:50:05;;;;;;;3.90;1.30;;;20.20;99.90;;;21.63;50.95;98672.13;5004144;28;130463;-73
2022/07/11 07:52:34;;;;;;;3.63;1.27;;;20.00;99.90;;;20.83;51.52;98660.75;5019320;28;121844;-72
2022/07/11 07:55:03;;;;;;;2.45;1.30;;;19.70;99.90;;;21.14;51.81;98653.50;5022341;28;121610;-71
2022/07/11 07:57:31;;;;;;;5.18;1.27;;;20.20;99.90;;;20.95;50.92;98659.53;5020188;28;130440;-71
2022/07/11 08:02:43;;;;;;;4.70;1.63;;;20.30;99.90;;;21.35;50.10;98660.09;5021257;28;119977;-74
2022/07/11 08:05:12;;;;;;;2.55;1.42;;;20.50;99.90;;;21.40;48.19;98658.88;5020915;28;119547;-75
2022/07/11 08:07:41;;;;;;;3.75;1.23;;;20.50;99.90;;;21.68;49.06;98655.16;5020389;28;129727;-73
2022/07/11 08:10:11;;;;;;;3.30;1.60;;;20.80;99.90;;;21.77;48.07;98655.47;5005788;28;129186;-78
2022/07/11 08:12:39;;;;;;;4.45;1.58;;;20.70;99.90;;;21.80;49.04;98646.38;5020614;28;120172;-73
2022/07/11 08:15:11;;;;;;;4.28;1.45;;;20.80;99.90;;;21.77;48.96;98649.13;5020687;28;119007;-75
2022/07/11 08:17:41;;;;;;;3.92;1.50;;;20.80;99.90;;;21.63;48.79;98647.28;5015832;28;129817;-76
2022/07/11 08:20:11;;;;;;;4.05;1.20;;;20.80;99.90;;;21.50;47.31;98656.06;5017876;28;129362;-74
2022/07/11 08:22:40;;;;;;;3.67;1.40;;;20.50;99.90;;;21.97;48.42;98641.06;5005797;28;119176;-74
2022/07/11 08:25:09;;;;;;;4.03;1.10;;;20.80;99.90;;;22.66;44.40;98655.75;5020615;28;119932;-73
2022/07/11 08:27:38;;;;;;;2.35;1.00;;;20.90;99.90;;;22.52;45.32;98653.94;5020144;28;130742;-74
2022/07/11 08:30:10;;;;;;;2.42;1.05;;;21.00;99.90;;;22.12;45.23;98648.03;5019736;28;129520;-75
2022/07/11 08:32:40;;;;;;;2.75;1.17;;;20.90;99.90;;;22.18;47.38;98635.34;5020359;28;119608;-75
2022/07/11 08:35:11;;;;;;;3.53;1.40;;;21.10;99.90;;;22.46;47.54;98636.25;5020476;28;119228;-72
2022/07/11 08:37:39;;;;;;;3.50;1.27;;;21.30;99.90;;;23.24;44.27;98639.19;5019923;28;130588;-76
2022/07/11 08:40:09;;;;;;;3.25;1.10;;;21.40;99.90;;;23.86;41.91;98641.81;5020087;28;130171;-74
2022/07/11 08:42:42;;;;;;;3.22;1.10;;;21.70;90.00;;;24.28;39.70;98639.47;5004686;28;121373;-75
2022/07/11 08:45:14;;;;;;;3.78;1.27;;;21.40;87.80;;;24.11;42.20;98648.91;5020282;28;121524;-73
2022/07/11 08:47:44;;;;;;;4.20;1.88;;;21.50;99.90;;;23.25;42.10;98657.38;5005372;28;129593;-77
2022/07/11 08:50:14;;;;;;;5.78;1.77;;;21.30;85.00;;;22.24;45.25;98644.75;5019860;28;130566;-73
2022/07/11 08:52:43;;;;;;;5.35;1.17;;;20.90;99.90;;;23.37;42.03;98650.47;4988029;28;120257;-76
2022/07/11 08:55:12;;;;;;;3.35;1.27;;;21.40;76.40;;;23.79;41.29;98641.88;5022853;28;119215;-76
2022/07/11 08:57:40;;;;;;;4.30;1.15;;;21.20;84.70;;;23.81;41.67;98650.56;5010836;28;130222;-75
2022/07/11 09:00:13;;;;;;;5.35;1.40;;;21.40;90.40;;;24.41;42.06;98647.91;5024499;27;129434;-76
2022/07/11 09:02:44;;;;;;;5.75;1.42;;;22.10;94.90;;;24.86;39.74;98654.97;5026791;28;119902;-73
2022/07/11 09:05:14;;;;;;;2.70;1.15;;;22.10;78.00;;;24.03;41.04;98640.69;5026189;28;119415;-76
2022/07/11 09:07:46;;;;;;;3.33;1.20;;;22.10;81.80;;;23.76;41.73;98631.66;5024784;28;131371;-75
2022/07/11 09:10:14;;;;;;;4.20;1.48;;;21.80;87.70;;;24.30;42.66;98642.56;5026364;28;129559;-77
2022/07/11 09:13:03;;;;;;;5.18;2.15;;;22.70;86.70;;;24.57;40.73;98650.81;5012001;28;118331;-76
2022/07/11 09:15:38;;;;;;;5.68;1.63;;;22.50;67.00;;;24.79;40.70;98646.78;5026519;28;119798;-75
2022/07/11 09:18:30;;;;;;;7.60;3.47;;;22.10;88.70;;;24.07;43.51;98656.47;4994656;28;128589;-75
2022/07/11 09:26:36;;;;;;;5.70;2.50;;;22.40;72.90;;;25.23;40.08;98644.66;5026957;28;119881;-74
2022/07/11 09:29:10;;;;;;;6.63;2.05;;;22.60;66.50;;;24.35;39.80;98635.75;5025647;28;130975;-77
2022/07/11 09:31:42;;;;;;;3.65;1.30;;;22.20;49.60;;;24.98;39.75;98637.66;5026353;28;128877;-74
2022/07/11 09:34:13;;;;;;;5.18;2.25;;;22.50;56.80;;;25.58;39.97;98647.81;5010317;28;120872;-74
2022/07/11 09:36:45;;;;;;;7.55;3.35;;;22.40;87.20;;;25.36;38.73;98659.44;5026230;28;122295;-73
2022/07/11 09:39:16;;;;;;;4.03;1.60;;;22.40;64.30;;;24.58;41.61;98641.25;5011242;28;129577;-76
2022/07/11 09:41:46;;;;;;;3.17;1.15;;;21.80;91.90;;;24.83;40.96;98647.50;5024353;28;129401;-76
2022/07/11 09:44:17;;;;;;;3.47;1.00;;;22.10;87.50;;;25.01;40.94;98649.88;5026369;28;119792;-78
2022/07/11 09:46:50;;;;;;;6.45;1.38;;;21.90;95.30;;;24.95;40.55;98649.63;5011461;28;118660;-77
2022/07/11 09:49:32;;;;;;;2.80;1.00;;;21.80;94.80;;;25.41;39.84;98649.81;5025649;28;130108;-77
2022/07/11 09:52:12;;;;;;;5.60;2.00;;;22.00;94.90;;;25.48;39.62;98650.41;5026377;28;129680;-77
2022/07/11 09:54:58;;;;;;;5.38;2.03;;;22.30;83.40;;;25.68;39.76;98646.78;5027802;28;119597;-75
2022/07/11 09:57:34;;;;;;;2.90;1.20;;;22.90;73.90;;;25.06;41.05;98649.38;4994314;28;118912;-73
2022/07/11 10:00:04;;;;;;;2.35;1.05;;;22.70;85.10;;;25.25;42.06;98648.53;5024131;28;129927;-76
2022/07/11 10:02:34;;;;;;;4.03;2.47;;;22.40;95.00;;;24.33;42.48;98652.81;5025637;28;129192;-73
2022/07/11 10:05:04;;;;;;;3.83;1.73;;;22.10;93.90;;;23.99;43.42;98650.28;5007776;28;119727;-76
2022/07/11 10:07:33;;;;;;;9.82;4.38;;;22.00;94.90;;;23.85;42.95;98651.31;5010871;28;118976;-76
2022/07/11 10:10:05;;;;;;;3.95;1.58;;;22.00;73.80;;;23.39;45.14;98642.53;5007119;28;129707;-76
2022/07/11 10:12:34;;;;;;;3.40;1.20;;;21.80;96.80;;;23.72;44.57;98642.00;5008584;28;129356;-71
2022/07/11 10:15:07;;;;;;;8.95;4.53;;;22.20;94.90;;;24.20;43.88;98646.34;5022221;28;119648;-73
2022/07/11 10:17:48;;;;;;;3.60;1.75;;;22.60;93.20;;;23.75;42.57;98641.16;5022666;28;119781;-76
2022/07/11 10:20:25;;;;;;;11.60;4.30;;;22.20;71.10;;;24.25;42.08;98640.31;5021095;28;129757;-75
2022/07/11 10:23:12;;;;;;;4.68;2.25;;;22.30;69.90;;;24.65;42.44;98634.00;5007424;28;128874;-74
2022/07/11 10:25:46;;;;;;;2.95;1.50;;;22.80;83.40;;;25.02;41.78;98645.91;5006134;28;120758;-74
2022/07/11 10:28:25;;;;;;;6.65;1.60;;;23.20;68.40;;;23.61;43.11;98648.50;5007608;28;121334;-73
2022/07/11 10:30:59;;;;;;;5.80;1.75;;;22.00;74.90;;;23.18;44.49;98643.63;4990341;28;128561;-77